Time;durP1;ratioP1;P1;durP2;ratioP2;P2;SDS_P1;SDS_P2;PMS_P1;PMS_P2;Temp;Humidity;BMP_temperature;BMP_pressure;BME280_temperature;BME280_humidity;BME280_pressure;Samples;Min_cycle;Max_cycle;Signal;HPM_P1;HPM_P2
2022/03/19 00:00:53;;;;;;;39.72;24.77;;;;;;;;;;5108974;28;20015;-67
2022/03/19 00:03:20;;;;;;;40.70;24.50;;;;;;;;;;5105585;28;20141;-66
2022/03/19 00:05:45;;;;;;;35.97;22.60;;;;;;;;;;5107578;28;20058;-67
2022/03/19 00:08:11;;;;;;;40.95;23.15;;;;;;;;;;5104301;28;20499;-66
2022/03/19 00:10:36;;;;;;;38.08;23.00;;;;;;;;;;5109409;28;20118;-67
2022/03/19 00:13:01;;;;;;;34.97;22.60;;;;;;;;;;5109166;28;20020;-66
2022/03/19 00:15:27;;;;;;;40.38;24.33;;;;;;;;;;5109179;28;20072;-66
2022/03/19 00:17:54;;;;;;;36.80;22.20;;;;;;;;;;5109033;28;20026;-68
2022/03/19 00:20:19;;;;;;;37.28;22.77;;;;;;;;;;5096616;28;20376;-66
2022/03/19 00:22:44;;;;;;;38.85;25.02;;;;;;;;;;5092101;28;20028;-66
2022/03/19 00:25:11;;;;;;;37.25;22.48;;;;;;;;;;5093127;28;20094;-65
2022/03/19 00:27:36;;;;;;;33.58;22.58;;;;;;;;;;5111770;28;20020;-66
2022/03/19 00:30:02;;;;;;;37.78;23.77;;;;;;;;;;5100860;28;20016;-67
2022/03/19 00:32:27;;;;;;;37.53;23.60;;;;;;;;;;5092973;28;20429;-68
2022/03/19 00:34:52;;;;;;;44.97;25.55;;;;;;;;;;5107207;28;20098;-68
2022/03/19 00:37:17;;;;;;;43.10;25.52;;;;;;;;;;5104594;28;20032;-67
2022/03/19 00:39:42;;;;;;;40.95;24.48;;;;;;;;;;5102262;28;20143;-67
2022/03/19 00:42:08;;;;;;;41.83;23.77;;;;;;;;;;5097037;28;20028;-68
2022/03/19 00:44:33;;;;;;;40.03;24.13;;;;;;;;;;5115782;28;20066;-67
2022/03/19 00:46:58;;;;;;;36.83;23.55;;;;;;;;;;5108795;28;20172;-68
2022/03/19 00:49:23;;;;;;;39.55;23.45;;;;;;;;;;5104446;28;20429;-67
2022/03/19 00:51:49;;;;;;;35.95;23.27;;;;;;;;;;5115709;28;20118;-68
2022/03/19 00:54:15;;;;;;;40.88;24.27;;;;;;;;;;5114531;28;20024;-66
2022/03/19 00:56:42;;;;;;;38.42;23.33;;;;;;;;;;5101676;28;20055;-65
2022/03/19 00:59:07;;;;;;;40.42;24.10;;;;;;;;;;5104252;28;20030;-67
2022/03/19 01:01:32;;;;;;;39.78;23.90;;;;;;;;;;5098888;28;20403;-65
2022/03/19 01:03:57;;;;;;;39.47;25.00;;;;;;;;;;5106630;28;20040;-66
2022/03/19 01:06:22;;;;;;;37.78;24.15;;;;;;;;;;5095992;28;20380;-68
2022/03/19 01:08:47;;;;;;;38.17;24.77;;;;;;;;;;5111405;28;20499;-67
2022/03/19 01:11:13;;;;;;;43.97;27.45;;;;;;;;;;5115590;28;20019;-67
2022/03/19 01:13:38;;;;;;;44.75;25.70;;;;;;;;;;5114137;28;20081;-66
2022/03/19 01:16:03;;;;;;;43.50;27.38;;;;;;;;;;5115204;28;20022;-66
2022/03/19 01:18:29;;;;;;;46.22;28.02;;;;;;;;;;5105311;28;20024;-66
2022/03/19 01:20:55;;;;;;;42.25;27.67;;;;;;;;;;5093905;28;20020;-66
2022/03/19 01:23:20;;;;;;;43.15;27.42;;;;;;;;;;5107186;28;20136;-65
2022/03/19 01:25:45;;;;;;;42.97;27.45;;;;;;;;;;5105713;28;20476;-67
2022/03/19 01:28:10;;;;;;;44.38;27.65;;;;;;;;;;5113924;28;20024;-67
2022/03/19 01:30:35;;;;;;;47.00;28.50;;;;;;;;;;5113894;28;20505;-66
2022/03/19 01:33:01;;;;;;;47.20;28.02;;;;;;;;;;5115741;28;20047;-66
2022/03/19 01:35:26;;;;;;;52.03;31.38;;;;;;;;;;5113468;28;20020;-67
2022/03/19 01:37:51;;;;;;;43.05;26.48;;;;;;;;;;5114568;27;20023;-66
2022/03/19 01:40:17;;;;;;;42.72;27.15;;;;;;;;;;5111377;28;20042;-66
2022/03/19 01:42:44;;;;;;;42.72;27.33;;;;;;;;;;5104952;28;20095;-66
2022/03/19 01:45:13;;;;;;;41.97;28.45;;;;;;;;;;5113857;28;20035;-64
2022/03/19 01:47:38;;;;;;;42.45;28.13;;;;;;;;;;5099508;28;20491;-67
2022/03/19 01:50:04;;;;;;;42.60;28.35;;;;;;;;;;5113641;28;20036;-66
2022/03/19 01:52:30;;;;;;;44.58;28.55;;;;;;;;;;5114865;28;20031;-65
2022/03/19 01:54:55;;;;;;;48.80;30.30;;;;;;;;;;5109936;28;21417;-66
2022/03/19 01:57:22;;;;;;;45.53;29.30;;;;;;;;;;5109458;28;20035;-66
2022/03/19 01:59:48;;;;;;;47.00;30.27;;;;;;;;;;5112271;28;20016;-67
2022/03/19 02:02:14;;;;;;;45.55;26.70;;;;;;;;;;5113895;28;20142;-66
2022/03/19 02:04:40;;;;;;;45.10;27.42;;;;;;;;;;5101518;28;20464;-66
2022/03/19 02:07:07;;;;;;;40.05;24.10;;;;;;;;;;5095546;28;20445;-68
2022/03/19 02:09:32;;;;;;;40.92;26.55;;;;;;;;;;5095967;28;20024;-68
2022/03/19 02:11:58;;;;;;;35.78;23.13;;;;;;;;;;5113295;28;20024;-66
2022/03/19 02:14:23;;;;;;;41.67;25.20;;;;;;;;;;5113576;28;20475;-66
2022/03/19 02:16:49;;;;;;;39.05;23.88;;;;;;;;;;5109121;28;20027;-66
2022/03/19 02:19:14;;;;;;;38.05;24.27;;;;;;;;;;5095192;28;20035;-67
2022/03/19 02:21:43;;;;;;;38.75;24.05;;;;;;;;;;5094960;28;20130;-66
2022/03/19 02:26:53;;;;;;;39.53;23.95;;;;;;;;;;5100224;28;20046;-66
2022/03/19 02:29:19;;;;;;;41.78;23.92;;;;;;;;;;5096327;28;20031;-67
2022/03/19 02:31:46;;;;;;;37.05;23.33;;;;;;;;;;5101728;27;20399;-67
2022/03/19 02:34:11;;;;;;;38.08;23.23;;;;;;;;;;5100208;28;20019;-67
2022/03/19 02:36:37;;;;;;;35.97;23.52;;;;;;;;;;5101342;28;20028;-66
2022/03/19 02:39:16;;;;;;;44.50;25.15;;;;;;;;;;5093481;28;20023;-68
2022/03/19 02:41:49;;;;;;;39.03;22.45;;;;;;;;;;5096967;28;20380;-67
2022/03/19 02:44:16;;;;;;;40.75;23.63;;;;;;;;;;5114465;28;20483;-67
2022/03/19 02:47:01;;;;;;;37.33;22.77;;;;;;;;;;5112636;28;20015;-67
2022/03/19 02:49:27;;;;;;;36.38;22.70;;;;;;;;;;5101834;28;20035;-67
2022/03/19 02:51:53;;;;;;;31.27;20.17;;;;;;;;;;5112360;28;20028;-67
2022/03/19 02:54:20;;;;;;;32.30;21.40;;;;;;;;;;5113790;28;20464;-67
2022/03/19 02:56:45;;;;;;;31.23;20.13;;;;;;;;;;5107562;28;20113;-67
2022/03/19 02:59:13;;;;;;;32.73;20.90;;;;;;;;;;5108680;28;20464;-66
2022/03/19 03:01:41;;;;;;;34.40;20.90;;;;;;;;;;5113588;28;20122;-65
2022/03/19 03:04:06;;;;;;;30.97;20.63;;;;;;;;;;5108506;28;20027;-66
2022/03/19 03:06:36;;;;;;;36.67;23.37;;;;;;;;;;5112316;28;20030;-66
2022/03/19 03:09:01;;;;;;;36.37;23.83;;;;;;;;;;5107683;28;20045;-66
2022/03/19 03:11:26;;;;;;;39.53;25.50;;;;;;;;;;5113874;28;20019;-67
2022/03/19 03:13:52;;;;;;;38.40;24.83;;;;;;;;;;5103094;28;20460;-68
2022/03/19 03:16:17;;;;;;;35.95;23.90;;;;;;;;;;5093536;28;20046;-68
2022/03/19 03:18:42;;;;;;;38.63;23.77;;;;;;;;;;5102335;28;20028;-67
2022/03/19 03:21:07;;;;;;;37.75;24.13;;;;;;;;;;5094204;28;20531;-67
2022/03/19 03:23:33;;;;;;;38.55;26.25;;;;;;;;;;5102260;28;20106;-67
2022/03/19 03:25:58;;;;;;;38.00;24.80;;;;;;;;;;5102868;28;20073;-68
2022/03/19 03:28:23;;;;;;;39.43;24.50;;;;;;;;;;5102988;28;20023;-68
2022/03/19 03:30:49;;;;;;;38.80;23.92;;;;;;;;;;5099873;28;20480;-67
2022/03/19 03:33:14;;;;;;;38.93;23.90;;;;;;;;;;5093081;28;20069;-67
2022/03/19 03:35:39;;;;;;;37.40;24.20;;;;;;;;;;5099339;28;20026;-66
2022/03/19 03:38:04;;;;;;;33.10;23.05;;;;;;;;;;5095486;28;20023;-66
2022/03/19 03:40:29;;;;;;;36.58;24.73;;;;;;;;;;5103132;28;20029;-67
2022/03/19 03:42:55;;;;;;;37.10;24.08;;;;;;;;;;5102301;28;20026;-67
2022/03/19 03:45:20;;;;;;;41.85;24.42;;;;;;;;;;5113000;28;20030;-66
2022/03/19 03:47:45;;;;;;;37.92;24.58;;;;;;;;;;5108589;28;20028;-66
2022/03/19 03:50:11;;;;;;;38.03;26.10;;;;;;;;;;5107012;28;20035;-67
2022/03/19 03:52:36;;;;;;;37.45;24.50;;;;;;;;;;5096121;28;20046;-67
2022/03/19 03:55:03;;;;;;;39.83;27.02;;;;;;;;;;5108097;28;20422;-65
2022/03/19 03:57:28;;;;;;;40.65;26.63;;;;;;;;;;5109349;28;20036;-67
2022/03/19 03:59:54;;;;;;;36.97;23.38;;;;;;;;;;5109887;28;20024;-66
2022/03/19 04:02:19;;;;;;;36.42;24.38;;;;;;;;;;5098022;28;20088;-67
2022/03/19 04:04:44;;;;;;;39.50;25.25;;;;;;;;;;5104031;28;20015;-67
2022/03/19 04:07:09;;;;;;;41.72;25.15;;;;;;;;;;5103640;28;20034;-67
2022/03/19 04:09:35;;;;;;;39.58;26.00;;;;;;;;;;5092972;28;20020;-66
2022/03/19 04:12:03;;;;;;;37.13;24.85;;;;;;;;;;5095824;28;20466;-67
2022/03/19 04:14:28;;;;;;;36.38;23.80;;;;;;;;;;5110268;28;20019;-67
2022/03/19 04:16:53;;;;;;;35.00;23.13;;;;;;;;;;5102719;28;20023;-67
2022/03/19 04:19:19;;;;;;;36.20;22.00;;;;;;;;;;5093292;28;20036;-67
2022/03/19 04:21:44;;;;;;;40.13;23.35;;;;;;;;;;5094206;28;20572;-67
2022/03/19 04:24:09;;;;;;;32.35;20.48;;;;;;;;;;5090442;28;20020;-67
2022/03/19 04:26:34;;;;;;;27.77;18.38;;;;;;;;;;5100910;28;20031;-67
2022/03/19 04:28:59;;;;;;;32.78;21.40;;;;;;;;;;5107301;28;20032;-67
2022/03/19 04:31:25;;;;;;;31.98;21.52;;;;;;;;;;5101643;28;20085;-67
2022/03/19 04:33:50;;;;;;;33.92;22.23;;;;;;;;;;5108731;28;20425;-67
2022/03/19 04:36:30;;;;;;;32.50;20.67;;;;;;;;;;5113030;28;20294;-67
2022/03/19 04:38:59;;;;;;;27.13;18.73;;;;;;;;;;5107999;28;20023;-68
2022/03/19 04:41:24;;;;;;;31.67;18.73;;;;;;;;;;5107093;28;20549;-67
2022/03/19 04:43:50;;;;;;;33.50;18.45;;;;;;;;;;5094836;28;20036;-66
2022/03/19 04:46:15;;;;;;;26.88;17.73;;;;;;;;;;5109626;28;20084;-67
2022/03/19 04:48:42;;;;;;;28.77;17.55;;;;;;;;;;5107110;28;21261;-65
2022/03/19 04:51:08;;;;;;;27.95;16.75;;;;;;;;;;5091843;28;20141;-66
2022/03/19 04:53:33;;;;;;;27.10;17.60;;;;;;;;;;5099111;28;20472;-67
2022/03/19 04:55:58;;;;;;;28.45;16.70;;;;;;;;;;5106849;28;20070;-67
2022/03/19 04:58:23;;;;;;;26.83;17.63;;;;;;;;;;5105562;28;20032;-68
2022/03/19 05:00:49;;;;;;;25.48;15.90;;;;;;;;;;5101369;28;20056;-67
2022/03/19 05:03:14;;;;;;;25.88;16.65;;;;;;;;;;5093108;28;20039;-67
2022/03/19 05:05:39;;;;;;;27.35;16.80;;;;;;;;;;5105216;28;20101;-67
2022/03/19 05:08:06;;;;;;;33.97;17.67;;;;;;;;;;5091781;28;20028;-67
2022/03/19 05:13:17;;;;;;;31.80;18.90;;;;;;;;;;5103556;28;20039;-67
2022/03/19 05:15:43;;;;;;;30.27;17.70;;;;;;;;;;5096938;28;20063;-67
2022/03/19 05:18:08;;;;;;;32.30;19.47;;;;;;;;;;5111230;28;20047;-67
2022/03/19 05:20:33;;;;;;;32.90;20.30;;;;;;;;;;5107477;28;20468;-67
2022/03/19 05:22:58;;;;;;;29.30;19.00;;;;;;;;;;5109056;28;20070;-67
2022/03/19 05:25:24;;;;;;;27.50;17.58;;;;;;;;;;5105430;28;20453;-66
2022/03/19 05:27:49;;;;;;;34.47;19.80;;;;;;;;;;5103625;28;20016;-66
2022/03/19 05:30:14;;;;;;;29.90;18.13;;;;;;;;;;5112798;28;20028;-65
2022/03/19 05:32:39;;;;;;;29.83;18.15;;;;;;;;;;5115419;27;20012;-67
2022/03/19 05:35:05;;;;;;;25.52;16.85;;;;;;;;;;5112658;28;20020;-67
2022/03/19 05:37:31;;;;;;;29.77;16.98;;;;;;;;;;5098765;28;20053;-66
2022/03/19 05:39:56;;;;;;;30.77;16.90;;;;;;;;;;5095692;28;20020;-66
2022/03/19 05:42:22;;;;;;;29.37;17.23;;;;;;;;;;5105938;28;20032;-65
2022/03/19 05:44:47;;;;;;;28.15;16.50;;;;;;;;;;5115503;28;20035;-67
2022/03/19 05:47:12;;;;;;;25.20;17.43;;;;;;;;;;5112003;28;20118;-67
2022/03/19 05:49:41;;;;;;;28.10;16.85;;;;;;;;;;5106164;28;20040;-66
2022/03/19 05:52:07;;;;;;;29.25;16.92;;;;;;;;;;5107492;28;20086;-66
2022/03/19 05:54:32;;;;;;;26.60;15.90;;;;;;;;;;5111780;28;20028;-65
2022/03/19 05:56:57;;;;;;;24.23;14.40;;;;;;;;;;5107239;28;20048;-68
2022/03/19 05:59:23;;;;;;;25.30;14.43;;;;;;;;;;5108667;28;20509;-68
2022/03/19 06:01:48;;;;;;;26.42;14.75;;;;;;;;;;5112834;28;20563;-67
2022/03/19 06:04:15;;;;;;;29.52;16.80;;;;;;;;;;5114592;28;20028;-66
2022/03/19 06:06:40;;;;;;;29.08;16.92;;;;;;;;;;5112794;28;20073;-65
2022/03/19 06:09:06;;;;;;;23.63;14.30;;;;;;;;;;5103315;28;20031;-66
2022/03/19 06:11:31;;;;;;;23.70;14.07;;;;;;;;;;5110997;28;20031;-66
2022/03/19 06:13:56;;;;;;;23.80;12.53;;;;;;;;;;5102768;28;20016;-64
2022/03/19 06:16:21;;;;;;;20.97;13.27;;;;;;;;;;5105142;28;20022;-66
2022/03/19 06:18:50;;;;;;;17.02;10.30;;;;;;;;;;5113855;28;20089;-67
2022/03/19 06:21:15;;;;;;;16.02;7.82;;;;;;;;;;5105271;28;20633;-67
2022/03/19 06:23:41;;;;;;;18.13;8.45;;;;;;;;;;5113443;28;20024;-66
2022/03/19 06:26:06;;;;;;;17.15;7.32;;;;;;;;;;5101617;28;20484;-67
2022/03/19 06:28:31;;;;;;;16.52;8.27;;;;;;;;;;5106828;28;20533;-66
2022/03/19 06:30:56;;;;;;;14.95;7.28;;;;;;;;;;5108521;28;20027;-67
2022/03/19 06:33:22;;;;;;;11.73;6.68;;;;;;;;;;5106999;28;20383;-66
2022/03/19 06:38:31;;;;;;;15.30;7.43;;;;;;;;;;5108042;28;20034;-67
2022/03/19 06:40:58;;;;;;;14.60;6.95;;;;;;;;;;5112495;28;20028;-68
2022/03/19 06:43:24;;;;;;;18.35;7.82;;;;;;;;;;5102185;28;20028;-68
2022/03/19 06:45:49;;;;;;;16.98;8.00;;;;;;;;;;5100778;28;20032;-68
2022/03/19 06:48:15;;;;;;;19.02;8.10;;;;;;;;;;5107786;28;20472;-66
2022/03/19 06:50:40;;;;;;;14.82;7.43;;;;;;;;;;5102828;28;20038;-67
2022/03/19 06:53:05;;;;;;;15.60;9.55;;;;;;;;;;5101070;28;20096;-67
2022/03/19 06:55:31;;;;;;;20.45;9.32;;;;;;;;;;5094674;28;20051;-66
2022/03/19 06:57:56;;;;;;;14.68;8.75;;;;;;;;;;5101295;28;20043;-67
2022/03/19 07:00:22;;;;;;;19.27;9.57;;;;;;;;;;5101355;28;20395;-67
2022/03/19 07:02:47;;;;;;;19.63;10.07;;;;;;;;;;5113826;28;20107;-68
2022/03/19 07:05:17;;;;;;;17.95;9.77;;;;;;;;;;5109904;28;20054;-68
2022/03/19 07:07:42;;;;;;;16.85;9.00;;;;;;;;;;5098768;28;20035;-68
2022/03/19 07:10:08;;;;;;;20.23;10.10;;;;;;;;;;5104110;28;20427;-67
2022/03/19 07:12:40;;;;;;;17.20;9.45;;;;;;;;;;5096660;28;20092;-67
2022/03/19 07:15:05;;;;;;;22.05;10.43;;;;;;;;;;5112857;28;20028;-68
2022/03/19 07:17:31;;;;;;;21.58;11.20;;;;;;;;;;5113725;28;20023;-66
2022/03/19 07:19:58;;;;;;;24.58;10.70;;;;;;;;;;5105459;28;20039;-67
2022/03/19 07:22:23;;;;;;;24.30;11.68;;;;;;;;;;5108703;28;20480;-67
2022/03/19 07:24:48;;;;;;;19.45;11.57;;;;;;;;;;5109345;28;20028;-66
2022/03/19 07:27:13;;;;;;;22.33;13.00;;;;;;;;;;5105494;28;20035;-67
2022/03/19 07:29:38;;;;;;;26.17;14.15;;;;;;;;;;5110156;28;20169;-68
2022/03/19 07:32:03;;;;;;;25.70;13.35;;;;;;;;;;5104030;28;20051;-67
2022/03/19 07:34:29;;;;;;;28.13;16.50;;;;;;;;;;5102460;28;20034;-68
2022/03/19 07:36:54;;;;;;;26.27;16.95;;;;;;;;;;5105420;28;20032;-67
2022/03/19 07:39:20;;;;;;;30.38;17.85;;;;;;;;;;5107353;28;20085;-68
2022/03/19 07:41:52;;;;;;;28.30;17.33;;;;;;;;;;5109111;28;20031;-67
2022/03/19 07:44:17;;;;;;;31.30;18.10;;;;;;;;;;5095628;28;20016;-68
2022/03/19 07:46:42;;;;;;;27.65;16.23;;;;;;;;;;5092209;28;20028;-67
2022/03/19 07:49:08;;;;;;;28.58;17.30;;;;;;;;;;5110574;28;20027;-67
2022/03/19 07:51:33;;;;;;;25.80;16.50;;;;;;;;;;5112013;28;20038;-67
2022/03/19 07:53:58;;;;;;;30.10;16.45;;;;;;;;;;5093774;28;20024;-67
2022/03/19 07:56:24;;;;;;;33.90;18.67;;;;;;;;;;5101171;28;20040;-65
2022/03/19 07:58:50;;;;;;;31.58;17.60;;;;;;;;;;5103165;28;20081;-67
2022/03/19 08:01:19;;;;;;;32.65;16.17;;;;;;;;;;5112282;28;20062;-66
2022/03/19 08:03:45;;;;;;;31.48;16.13;;;;;;;;;;5101963;28;20039;-66
2022/03/19 08:06:10;;;;;;;33.33;18.10;;;;;;;;;;5098189;28;20028;-67
2022/03/19 08:08:37;;;;;;;33.13;17.05;;;;;;;;;;5101948;28;20027;-67
2022/03/19 08:11:03;;;;;;;33.13;19.00;;;;;;;;;;5111525;28;20030;-68
2022/03/19 08:13:28;;;;;;;35.40;18.02;;;;;;;;;;5110269;28;20027;-68
2022/03/19 08:15:53;;;;;;;38.60;18.58;;;;;;;;;;5107634;28;20119;-69
2022/03/19 08:18:18;;;;;;;36.05;17.85;;;;;;;;;;5109708;28;20051;-68
2022/03/19 08:20:45;;;;;;;37.78;19.67;;;;;;;;;;5096471;28;20096;-65
2022/03/19 08:23:11;;;;;;;36.22;20.65;;;;;;;;;;5108238;28;20032;-67
2022/03/19 08:25:37;;;;;;;30.58;18.35;;;;;;;;;;5096292;28;20036;-67
2022/03/19 08:28:02;;;;;;;34.15;18.33;;;;;;;;;;5107292;28;20395;-68
2022/03/19 08:30:27;;;;;;;30.02;17.80;;;;;;;;;;5096820;28;20027;-67
2022/03/19 08:32:53;;;;;;;28.52;16.30;;;;;;;;;;5100919;28;20028;-67
2022/03/19 08:35:18;;;;;;;26.52;15.27;;;;;;;;;;5104673;28;20039;-69
2022/03/19 08:37:43;;;;;;;25.10;14.60;;;;;;;;;;5102770;28;20032;-68
2022/03/19 08:40:18;;;;;;;28.33;15.68;;;;;;;;;;5103909;28;20036;-68
2022/03/19 08:42:45;;;;;;;24.25;14.25;;;;;;;;;;5105857;28;20039;-67
2022/03/19 08:45:10;;;;;;;21.13;13.38;;;;;;;;;;5105308;28;20035;-67
2022/03/19 08:47:35;;;;;;;22.27;13.85;;;;;;;;;;5096716;28;20035;-67
2022/03/19 08:50:01;;;;;;;23.15;14.77;;;;;;;;;;5091443;28;20055;-67
2022/03/19 08:52:26;;;;;;;24.25;14.60;;;;;;;;;;5094708;28;20035;-68
2022/03/19 08:54:52;;;;;;;27.88;13.65;;;;;;;;;;5091460;28;20032;-66
2022/03/19 08:57:18;;;;;;;23.15;13.00;;;;;;;;;;5109322;28;20043;-68
2022/03/19 08:59:44;;;;;;;21.05;12.57;;;;;;;;;;5107946;28;20030;-68
2022/03/19 09:02:09;;;;;;;20.10;12.80;;;;;;;;;;5109840;28;20035;-67
2022/03/19 09:04:34;;;;;;;24.05;13.27;;;;;;;;;;5105930;28;20094;-67
2022/03/19 09:06:59;;;;;;;22.58;14.05;;;;;;;;;;5114338;28;20238;-68
2022/03/19 09:09:24;;;;;;;19.00;12.20;;;;;;;;;;5112497;28;20027;-68
2022/03/19 09:11:50;;;;;;;21.00;11.98;;;;;;;;;;5108371;28;20077;-76
2022/03/19 09:14:17;;;;;;;18.83;12.45;;;;;;;;;;5079829;28;20073;-60
2022/03/19 09:16:42;;;;;;;18.65;11.77;;;;;;;;;;5100353;28;20503;-59
2022/03/19 09:19:08;;;;;;;21.27;12.90;;;;;;;;;;5096035;28;20107;-64
2022/03/19 09:21:33;;;;;;;20.25;12.00;;;;;;;;;;5107456;28;20024;-60
2022/03/19 09:23:58;;;;;;;21.80;11.82;;;;;;;;;;5095009;28;20113;-61
2022/03/19 09:26:24;;;;;;;17.77;11.55;;;;;;;;;;5103087;28;20050;-59
2022/03/19 09:28:50;;;;;;;25.35;13.00;;;;;;;;;;5100987;28;20023;-61
2022/03/19 09:31:16;;;;;;;23.85;13.95;;;;;;;;;;5102303;28;20073;-60
2022/03/19 09:33:42;;;;;;;18.38;10.98;;;;;;;;;;5102776;28;20031;-61
2022/03/19 09:36:07;;;;;;;20.13;12.82;;;;;;;;;;5108888;28;20023;-60
2022/03/19 09:38:32;;;;;;;21.15;11.93;;;;;;;;;;5107120;28;20031;-60
2022/03/19 09:40:58;;;;;;;19.60;11.85;;;;;;;;;;5106797;28;20028;-60
2022/03/19 09:43:26;;;;;;;19.48;11.25;;;;;;;;;;5100556;28;20120;-59
2022/03/19 09:45:51;;;;;;;20.98;12.60;;;;;;;;;;5096165;28;20028;-59
2022/03/19 09:48:17;;;;;;;19.70;10.57;;;;;;;;;;5100980;28;20032;-59
2022/03/19 09:50:42;;;;;;;14.93;9.82;;;;;;;;;;5111159;28;20088;-60
2022/03/19 09:53:08;;;;;;;14.00;9.68;;;;;;;;;;5107156;28;20235;-56
2022/03/19 09:55:34;;;;;;;13.88;9.80;;;;;;;;;;5109555;28;20024;-59
2022/03/19 09:58:01;;;;;;;17.98;10.80;;;;;;;;;;5112628;28;20537;-61
2022/03/19 10:00:26;;;;;;;16.02;10.77;;;;;;;;;;5106802;28;20472;-63
2022/03/19 10:03:00;;;;;;;14.88;9.82;;;;;;;;;;5109376;28;20055;-61
2022/03/19 10:10:56;;;;;;;15.50;9.70;;;;;;;;;;5093677;28;20393;-63
2022/03/19 10:13:25;;;;;;;20.00;10.90;;;;;;;;;;5101334;28;20015;-58
2022/03/19 10:15:50;;;;;;;14.85;11.25;;;;;;;;;;5097186;28;20467;-65
2022/03/19 10:18:15;;;;;;;15.43;10.77;;;;;;;;;;5094312;28;20022;-63
2022/03/19 10:20:42;;;;;;;16.25;11.60;;;;;;;;;;5108143;28;20016;-63
2022/03/19 10:23:07;;;;;;;16.33;10.45;;;;;;;;;;5108725;28;20031;-63
2022/03/19 10:25:32;;;;;;;18.05;11.60;;;;;;;;;;5099353;28;20027;-64
2022/03/19 10:28:03;;;;;;;14.65;11.43;;;;;;;;;;5105293;28;20023;-63
2022/03/19 10:30:34;;;;;;;17.35;12.02;;;;;;;;;;5106708;28;20122;-63
2022/03/19 10:32:59;;;;;;;19.15;13.15;;;;;;;;;;5113763;28;20081;-64
2022/03/19 10:35:42;;;;;;;19.50;12.63;;;;;;;;;;5107647;28;20027;-71
2022/03/19 10:38:22;;;;;;;22.90;13.48;;;;;;;;;;5110096;28;20023;-61
2022/03/19 10:40:48;;;;;;;17.75;13.82;;;;;;;;;;5101623;28;20038;-62
2022/03/19 10:43:16;;;;;;;18.58;13.48;;;;;;;;;;5097005;28;20032;-62
2022/03/19 10:45:51;;;;;;;18.38;13.52;;;;;;;;;;5092689;28;20028;-62
2022/03/19 10:48:23;;;;;;;21.17;14.80;;;;;;;;;;5100419;28;20023;-61
2022/03/19 10:50:49;;;;;;;21.48;14.15;;;;;;;;;;5106254;28;20042;-61
2022/03/19 10:53:14;;;;;;;19.55;14.40;;;;;;;;;;5095862;28;20016;-62
2022/03/19 10:55:40;;;;;;;19.23;14.68;;;;;;;;;;5097265;28;20020;-62
2022/03/19 10:58:05;;;;;;;20.63;15.63;;;;;;;;;;5108522;28;20036;-61
2022/03/19 11:00:31;;;;;;;23.13;16.33;;;;;;;;;;5111686;28;20074;-62
2022/03/19 11:03:00;;;;;;;25.45;17.75;;;;;;;;;;5103201;28;20043;-66
2022/03/19 11:05:26;;;;;;;21.90;15.98;;;;;;;;;;5112268;28;20016;-62
2022/03/19 11:07:53;;;;;;;21.67;17.08;;;;;;;;;;5106702;28;20023;-59
2022/03/19 11:10:19;;;;;;;24.95;17.42;;;;;;;;;;5098231;28;20408;-60
2022/03/19 11:12:50;;;;;;;24.45;17.60;;;;;;;;;;5108645;28;20015;-60
2022/03/19 11:15:17;;;;;;;23.98;18.00;;;;;;;;;;5111350;28;20020;-60
2022/03/19 11:17:44;;;;;;;23.67;17.38;;;;;;;;;;5112179;28;20135;-60
2022/03/19 11:20:11;;;;;;;23.30;16.08;;;;;;;;;;5102741;28;20057;-60
2022/03/19 11:22:41;;;;;;;20.50;14.98;;;;;;;;;;5109457;27;20032;-60
2022/03/19 11:25:24;;;;;;;20.77;13.90;;;;;;;;;;5101341;28;20542;-60
2022/03/19 11:27:51;;;;;;;19.20;14.38;;;;;;;;;;5106834;28;20464;-60
2022/03/19 11:30:17;;;;;;;20.63;13.90;;;;;;;;;;5109086;27;20027;-60
2022/03/19 11:33:01;;;;;;;18.15;13.43;;;;;;;;;;5104597;28;20475;-55
2022/03/19 11:35:26;;;;;;;17.15;12.38;;;;;;;;;;5099760;28;20027;-59
2022/03/19 11:38:02;;;;;;;20.60;13.85;;;;;;;;;;5112131;28;20019;-60
2022/03/19 11:40:35;;;;;;;20.27;14.00;;;;;;;;;;5107078;28;20015;-60
2022/03/19 11:43:01;;;;;;;19.08;13.48;;;;;;;;;;5101043;28;20027;-61
2022/03/19 11:45:27;;;;;;;16.85;13.73;;;;;;;;;;5099911;28;20059;-57
2022/03/19 11:47:52;;;;;;;18.88;13.55;;;;;;;;;;5112477;28;20062;-59
2022/03/19 11:50:30;;;;;;;17.67;13.73;;;;;;;;;;5106486;28;20012;-60
2022/03/19 11:52:55;;;;;;;16.50;13.45;;;;;;;;;;5092160;28;20066;-60
2022/03/19 11:55:23;;;;;;;20.55;13.82;;;;;;;;;;5099580;28;20496;-60
2022/03/19 11:57:55;;;;;;;17.75;12.75;;;;;;;;;;5112371;28;20496;-60
2022/03/19 12:00:21;;;;;;;16.33;12.23;;;;;;;;;;5109934;28;20024;-60
2022/03/19 12:03:05;;;;;;;18.90;11.88;;;;;;;;;;5093253;28;20119;-59
2022/03/19 12:05:31;;;;;;;18.85;12.63;;;;;;;;;;5107651;28;20074;-60
2022/03/19 12:08:03;;;;;;;15.30;11.73;;;;;;;;;;5101759;28;20114;-61
2022/03/19 12:10:36;;;;;;;15.07;11.35;;;;;;;;;;5094263;28;20124;-60
2022/03/19 12:13:04;;;;;;;12.93;10.77;;;;;;;;;;5094786;28;20024;-60
2022/03/19 12:15:29;;;;;;;14.98;10.98;;;;;;;;;;5099794;28;20472;-61
2022/03/19 12:18:15;;;;;;;12.15;10.43;;;;;;;;;;5110170;28;20023;-59
2022/03/19 12:20:43;;;;;;;12.60;9.73;;;;;;;;;;5105937;28;20485;-60
2022/03/19 12:23:08;;;;;;;14.13;9.98;;;;;;;;;;5098548;28;20043;-63
2022/03/19 12:25:40;;;;;;;18.00;11.05;;;;;;;;;;5102108;28;20015;-61
2022/03/19 12:28:05;;;;;;;12.18;10.80;;;;;;;;;;5104102;28;20036;-60
2022/03/19 12:30:31;;;;;;;10.40;9.38;;;;;;;;;;5099323;28;20057;-60
2022/03/19 12:32:57;;;;;;;11.43;9.63;;;;;;;;;;5105501;28;20027;-60
2022/03/19 12:35:38;;;;;;;10.93;8.68;;;;;;;;;;5107613;28;20015;-60
2022/03/19 12:38:03;;;;;;;9.68;8.70;;;;;;;;;;5105703;28;20016;-61
2022/03/19 12:41:23;;;;;;;9.18;8.27;;;;;;;;;;5099095;28;20498;-60
2022/03/19 12:43:15;;;;;;;10.98;9.07;;;;;;;;;;5100285;28;20058;-61
2022/03/19 12:45:42;;;;;;;9.20;8.30;;;;;;;;;;5110682;28;20468;-60
2022/03/19 12:48:08;;;;;;;9.30;8.40;;;;;;;;;;5099718;28;20024;-60
2022/03/19 12:50:33;;;;;;;9.35;8.32;;;;;;;;;;5092413;28;20051;-61
2022/03/19 12:52:58;;;;;;;9.07;7.45;;;;;;;;;;5110447;28;20062;-61
2022/03/19 12:55:24;;;;;;;10.88;7.72;;;;;;;;;;5105553;28;20023;-60
2022/03/19 12:57:58;;;;;;;10.30;8.38;;;;;;;;;;5108878;28;20073;-58
2022/03/19 13:00:24;;;;;;;8.88;7.82;;;;;;;;;;5105606;28;20016;-57
2022/03/19 13:02:54;;;;;;;10.10;7.97;;;;;;;;;;5105482;28;20023;-65
2022/03/19 13:05:19;;;;;;;10.65;7.85;;;;;;;;;;5110041;28;20042;-62
2022/03/19 13:08:00;;;;;;;10.75;7.93;;;;;;;;;;5094544;28;20032;-61
2022/03/19 13:10:25;;;;;;;10.10;7.65;;;;;;;;;;5095717;28;20480;-61
2022/03/19 13:13:02;;;;;;;11.23;8.18;;;;;;;;;;5109567;28;20020;-63
2022/03/19 13:15:27;;;;;;;13.45;9.00;;;;;;;;;;5110463;28;20020;-60
2022/03/19 13:17:53;;;;;;;9.95;8.70;;;;;;;;;;5108968;28;20035;-60
2022/03/19 13:20:18;;;;;;;8.97;8.07;;;;;;;;;;5109319;28;20180;-60
2022/03/19 13:22:43;;;;;;;9.85;8.50;;;;;;;;;;5108028;28;21461;-59
2022/03/19 13:25:09;;;;;;;9.68;8.55;;;;;;;;;;5096219;28;20120;-61
2022/03/19 13:27:35;;;;;;;9.23;8.32;;;;;;;;;;5110703;28;20016;-59
2022/03/19 13:30:02;;;;;;;9.38;8.50;;;;;;;;;;5098631;28;20466;-57
2022/03/19 13:32:30;;;;;;;10.15;9.15;;;;;;;;;;5106069;28;20023;-58
2022/03/19 13:34:57;;;;;;;10.93;9.27;;;;;;;;;;5109076;28;20095;-58
2022/03/19 13:37:23;;;;;;;10.10;8.65;;;;;;;;;;5109997;28;20027;-59
2022/03/19 13:39:58;;;;;;;11.15;9.55;;;;;;;;;;5092423;28;20024;-59
2022/03/19 13:42:23;;;;;;;;;;;;;;;;;;5096905;28;20472;-60
2022/03/19 13:44:58;;;;;;;9.75;8.75;;;;;;;;;;5104173;28;19908;-60
2022/03/19 13:47:31;;;;;;;11.05;9.63;;;;;;;;;;5097644;28;20476;-60
2022/03/19 13:49:57;;;;;;;10.88;9.77;;;;;;;;;;5114490;28;20028;-61
2022/03/19 13:52:29;;;;;;;10.73;9.63;;;;;;;;;;5109887;28;20077;-59
2022/03/19 13:54:55;;;;;;;10.55;8.70;;;;;;;;;;5095518;28;20028;-58
2022/03/19 13:57:21;;;;;;;10.68;9.57;;;;;;;;;;5111873;28;20055;-60
2022/03/19 13:59:46;;;;;;;11.00;9.90;;;;;;;;;;5108926;28;20028;-60
2022/03/19 14:02:11;;;;;;;10.98;9.35;;;;;;;;;;5109918;28;20032;-61
2022/03/19 14:04:37;;;;;;;12.30;10.30;;;;;;;;;;5107690;28;20032;-60
2022/03/19 14:07:03;;;;;;;12.27;10.55;;;;;;;;;;5109561;27;20024;-61
2022/03/19 14:09:28;;;;;;;11.55;10.35;;;;;;;;;;5105175;28;20107;-61
2022/03/19 14:11:53;;;;;;;12.77;10.88;;;;;;;;;;5103728;28;20115;-61
2022/03/19 14:14:19;;;;;;;11.02;9.93;;;;;;;;;;5107958;28;20152;-61
2022/03/19 14:17:01;;;;;;;10.90;9.85;;;;;;;;;;5114878;28;20551;-61
2022/03/19 14:19:27;;;;;;;13.02;10.40;;;;;;;;;;5097392;28;20065;-60
2022/03/19 14:21:52;;;;;;;11.27;10.18;;;;;;;;;;5112504;28;20007;-62
2022/03/19 14:24:18;;;;;;;10.65;9.27;;;;;;;;;;5098836;28;20077;-61
2022/03/19 14:26:46;;;;;;;12.57;10.13;;;;;;;;;;5106119;28;20103;-61
2022/03/19 14:29:11;;;;;;;11.95;10.25;;;;;;;;;;5104639;27;20161;-61
2022/03/19 14:31:37;;;;;;;12.35;9.80;;;;;;;;;;5112242;28;20110;-61